sensor_id;sensor_type;location;lat;lon;timestamp;temperature;humidity
13806;DHT22;6974;53.606;9.872;2023-01-10T00:02:08;8.50;99.90
13806;DHT22;6974;53.606;9.872;2023-01-10T00:04:35;8.40;99.90
13806;DHT22;6974;53.606;9.872;2023-01-10T00:07:02;8.40;99.90
13806;DHT22;6974;53.606;9.872;2023-01-10T00:09:28;8.40;99.90
13806;DHT22;6974;53.606;9.872;2023-01-10T00:11:55;8.40;99.90
13806;DHT22;6974;53.606;9.872;2023-01-10T00:14:41;8.50;99.90
13806;DHT22;6974;53.606;9.872;2023-01-10T00:17:08;8.40;99.90
13806;DHT22;6974;53.606;9.872;2023-01-10T00:19:35;8.40;99.90
13806;DHT22;6974;53.606;9.872;2023-01-10T00:22:02;8.40;99.90
13806;DHT22;6974;53.606;9.872;2023-01-10T00:24:38;8.40;99.90
13806;DHT22;6974;53.606;9.872;2023-01-10T00:27:07;8.40;99.90
13806;DHT22;6974;53.606;9.872;2023-01-10T00:29:37;8.40;99.90
13806;DHT22;6974;53.606;9.872;2023-01-10T00:32:05;8.40;99.90
13806;DHT22;6974;53.606;9.872;2023-01-10T00:34:32;8.40;99.90
13806;DHT22;6974;53.606;9.872;2023-01-10T00:36:59;8.40;99.90
13806;DHT22;6974;53.606;9.872;2023-01-10T00:39:26;8.40;99.90
13806;DHT22;6974;53.606;9.872;2023-01-10T00:41:52;8.50;99.90
13806;DHT22;6974;53.606;9.872;2023-01-10T00:44:33;8.40;99.90
13806;DHT22;6974;53.606;9.872;2023-01-10T00:47:00;8.40;99.90
13806;DHT22;6974;53.606;9.872;2023-01-10T00:49:28;8.40;99.90
13806;DHT22;6974;53.606;9.872;2023-01-10T00:51:55;8.40;99.90
13806;DHT22;6974;53.606;9.872;2023-01-10T00:54:24;8.30;99.90
13806;DHT22;6974;53.606;9.872;2023-01-10T00:56:51;8.30;99.90
13806;DHT22;6974;53.606;9.872;2023-01-10T00:59:18;8.30;99.90
13806;DHT22;6974;53.606;9.872;2023-01-10T01:01:45;8.30;99.90
13806;DHT22;6974;53.606;9.872;2023-01-10T01:04:11;8.20;99.90
13806;DHT22;6974;53.606;9.872;2023-01-10T01:06:42;8.20;99.90
13806;DHT22;6974;53.606;9.872;2023-01-10T01:09:09;8.20;99.90
13806;DHT22;6974;53.606;9.872;2023-01-10T01:11:35;8.20;99.90
13806;DHT22;6974;53.606;9.872;2023-01-10T01:14:02;8.20;99.90
13806;DHT22;6974;53.606;9.872;2023-01-10T01:16:29;8.20;99.90
13806;DHT22;6974;53.606;9.872;2023-01-10T01:18:56;8.20;99.90
13806;DHT22;6974;53.606;9.872;2023-01-10T01:21:23;8.20;99.90
13806;DHT22;6974;53.606;9.872;2023-01-10T01:23:54;8.10;99.90
13806;DHT22;6974;53.606;9.872;2023-01-10T01:26:22;8.20;99.90
13806;DHT22;6974;53.606;9.872;2023-01-10T01:28:49;8.20;99.90
13806;DHT22;6974;53.606;9.872;2023-01-10T01:31:16;8.20;99.90
13806;DHT22;6974;53.606;9.872;2023-01-10T01:33:43;8.10;99.90
13806;DHT22;6974;53.606;9.872;2023-01-10T01:36:11;8.10;99.90
13806;DHT22;6974;53.606;9.872;2023-01-10T01:38:39;8.10;99.90
13806;DHT22;6974;53.606;9.872;2023-01-10T01:41:08;8.10;99.90
13806;DHT22;6974;53.606;9.872;2023-01-10T01:44:03;8.10;99.90
13806;DHT22;6974;53.606;9.872;2023-01-10T01:46:31;8.00;99.90
13806;DHT22;6974;53.606;9.872;2023-01-10T01:48:59;8.00;99.90
13806;DHT22;6974;53.606;9.872;2023-01-10T01:51:28;8.10;99.90
13806;DHT22;6974;53.606;9.872;2023-01-10T01:53:59;8.10;99.90
13806;DHT22;6974;53.606;9.872;2023-01-10T01:56:32;8.00;99.90
13806;DHT22;6974;53.606;9.872;2023-01-10T01:59:04;8.00;99.90
13806;DHT22;6974;53.606;9.872;2023-01-10T02:01:32;8.00;99.90
13806;DHT22;6974;53.606;9.872;2023-01-10T02:04:06;8.00;99.90
13806;DHT22;6974;53.606;9.872;2023-01-10T02:06:34;8.00;99.90
13806;DHT22;6974;53.606;9.872;2023-01-10T02:09:07;8.00;99.90
13806;DHT22;6974;53.606;9.872;2023-01-10T02:11:39;8.00;99.90
13806;DHT22;6974;53.606;9.872;2023-01-10T02:14:07;8.00;99.90
13806;DHT22;6974;53.606;9.872;2023-01-10T02:16:35;8.00;99.90
13806;DHT22;6974;53.606;9.872;2023-01-10T02:19:04;8.10;99.90
13806;DHT22;6974;53.606;9.872;2023-01-10T02:24:49;8.00;99.90
13806;DHT22;6974;53.606;9.872;2023-01-10T02:27:27;8.00;99.90
13806;DHT22;6974;53.606;9.872;2023-01-10T02:30:10;8.00;99.90
13806;DHT22;6974;53.606;9.872;2023-01-10T02:32:45;7.90;99.90
13806;DHT22;6974;53.606;9.872;2023-01-10T02:35:32;7.90;99.90
13806;DHT22;6974;53.606;9.872;2023-01-10T02:38:06;7.90;99.90
13806;DHT22;6974;53.606;9.872;2023-01-10T02:40:42;7.90;99.90
13806;DHT22;6974;53.606;9.872;2023-01-10T02:43:15;7.80;99.90
13806;DHT22;6974;53.606;9.872;2023-01-10T02:45:47;7.80;99.90
13806;DHT22;6974;53.606;9.872;2023-01-10T02:48:17;7.80;99.90
13806;DHT22;6974;53.606;9.872;2023-01-10T02:50:53;7.80;99.90
13806;DHT22;6974;53.606;9.872;2023-01-10T02:53:25;7.80;99.90
13806;DHT22;6974;53.606;9.872;2023-01-10T02:59:37;7.90;99.90
13806;DHT22;6974;53.606;9.872;2023-01-10T03:02:13;7.90;99.90
13806;DHT22;6974;53.606;9.872;2023-01-10T03:04:51;7.90;99.90
13806;DHT22;6974;53.606;9.872;2023-01-10T03:07:24;7.90;99.90
13806;DHT22;6974;53.606;9.872;2023-01-10T03:09:57;7.90;99.90
13806;DHT22;6974;53.606;9.872;2023-01-10T03:12:30;7.90;99.90
13806;DHT22;6974;53.606;9.872;2023-01-10T03:14:58;7.90;99.90
13806;DHT22;6974;53.606;9.872;2023-01-10T03:17:27;7.90;99.90
13806;DHT22;6974;53.606;9.872;2023-01-10T03:20:00;7.90;99.90
13806;DHT22;6974;53.606;9.872;2023-01-10T03:22:30;7.90;99.90
13806;DHT22;6974;53.606;9.872;2023-01-10T03:24:59;7.80;99.90
13806;DHT22;6974;53.606;9.872;2023-01-10T03:27:31;7.80;99.90
13806;DHT22;6974;53.606;9.872;2023-01-10T03:30:02;7.80;99.90
13806;DHT22;6974;53.606;9.872;2023-01-10T03:32:31;7.80;99.90
13806;DHT22;6974;53.606;9.872;2023-01-10T03:35:00;7.80;99.90
13806;DHT22;6974;53.606;9.872;2023-01-10T03:37:34;7.80;99.90
13806;DHT22;6974;53.606;9.872;2023-01-10T03:40:07;7.80;99.90
13806;DHT22;6974;53.606;9.872;2023-01-10T03:42:42;7.80;99.90
13806;DHT22;6974;53.606;9.872;2023-01-10T03:45:32;7.70;99.90
13806;DHT22;6974;53.606;9.872;2023-01-10T03:48:01;7.70;99.90
13806;DHT22;6974;53.606;9.872;2023-01-10T03:50:32;7.70;99.90
13806;DHT22;6974;53.606;9.872;2023-01-10T03:53:00;7.60;99.90
13806;DHT22;6974;53.606;9.872;2023-01-10T03:55:27;7.60;99.90
13806;DHT22;6974;53.606;9.872;2023-01-10T03:57:55;7.60;99.90
13806;DHT22;6974;53.606;9.872;2023-01-10T04:00:22;7.70;99.90
13806;DHT22;6974;53.606;9.872;2023-01-10T04:02:50;7.70;99.90
13806;DHT22;6974;53.606;9.872;2023-01-10T04:05:17;7.60;99.90
13806;DHT22;6974;53.606;9.872;2023-01-10T04:07:45;7.60;99.90
13806;DHT22;6974;53.606;9.872;2023-01-10T04:10:14;7.60;99.90
13806;DHT22;6974;53.606;9.872;2023-01-10T04:12:41;7.60;99.90
13806;DHT22;6974;53.606;9.872;2023-01-10T04:15:08;7.50;99.90
13806;DHT22;6974;53.606;9.872;2023-01-10T04:17:35;7.50;99.90
13806;DHT22;6974;53.606;9.872;2023-01-10T04:20:02;7.50;99.90
13806;DHT22;6974;53.606;9.872;2023-01-10T04:22:29;7.50;99.90
13806;DHT22;6974;53.606;9.872;2023-01-10T04:24:57;7.40;99.90
13806;DHT22;6974;53.606;9.872;2023-01-10T04:27:24;7.40;99.90
13806;DHT22;6974;53.606;9.872;2023-01-10T04:29:51;7.40;99.90
13806;DHT22;6974;53.606;9.872;2023-01-10T04:32:17;7.40;99.90
13806;DHT22;6974;53.606;9.872;2023-01-10T04:34:44;7.40;99.90
13806;DHT22;6974;53.606;9.872;2023-01-10T04:37:11;7.30;99.90
13806;DHT22;6974;53.606;9.872;2023-01-10T04:39:38;7.30;99.90
13806;DHT22;6974;53.606;9.872;2023-01-10T04:42:06;7.30;99.90
13806;DHT22;6974;53.606;9.872;2023-01-10T04:44:33;7.30;99.90
13806;DHT22;6974;53.606;9.872;2023-01-10T04:47:00;7.30;99.90
13806;DHT22;6974;53.606;9.872;2023-01-10T04:49:26;7.40;99.90
13806;DHT22;6974;53.606;9.872;2023-01-10T04:51:53;7.40;99.90
13806;DHT22;6974;53.606;9.872;2023-01-10T04:54:21;7.40;99.90
13806;DHT22;6974;53.606;9.872;2023-01-10T04:56:48;7.40;99.90
13806;DHT22;6974;53.606;9.872;2023-01-10T04:59:16;7.40;99.90
13806;DHT22;6974;53.606;9.872;2023-01-10T05:01:43;7.30;99.90
13806;DHT22;6974;53.606;9.872;2023-01-10T05:04:10;7.40;99.90
13806;DHT22;6974;53.606;9.872;2023-01-10T05:06:37;7.40;99.90
13806;DHT22;6974;53.606;9.872;2023-01-10T05:09:05;7.40;99.90
13806;DHT22;6974;53.606;9.872;2023-01-10T05:11:32;7.50;99.90
13806;DHT22;6974;53.606;9.872;2023-01-10T05:13:59;7.50;99.90
13806;DHT22;6974;53.606;9.872;2023-01-10T05:16:27;7.50;99.90
13806;DHT22;6974;53.606;9.872;2023-01-10T05:18:54;7.50;99.90
13806;DHT22;6974;53.606;9.872;2023-01-10T05:21:21;7.50;99.90
13806;DHT22;6974;53.606;9.872;2023-01-10T05:23:48;7.60;99.90
13806;DHT22;6974;53.606;9.872;2023-01-10T05:26:16;7.60;99.90
13806;DHT22;6974;53.606;9.872;2023-01-10T05:28:43;7.50;99.90
13806;DHT22;6974;53.606;9.872;2023-01-10T05:31:12;7.50;99.90
13806;DHT22;6974;53.606;9.872;2023-01-10T05:33:43;7.60;99.90
13806;DHT22;6974;53.606;9.872;2023-01-10T05:36:10;7.50;99.90
13806;DHT22;6974;53.606;9.872;2023-01-10T05:38:37;7.60;99.90
13806;DHT22;6974;53.606;9.872;2023-01-10T05:41:04;7.50;99.90
13806;DHT22;6974;53.606;9.872;2023-01-10T05:43:31;7.60;99.90
13806;DHT22;6974;53.606;9.872;2023-01-10T05:45:58;7.60;99.90
13806;DHT22;6974;53.606;9.872;2023-01-10T05:48:25;7.70;99.90
13806;DHT22;6974;53.606;9.872;2023-01-10T05:50:53;7.60;99.90
13806;DHT22;6974;53.606;9.872;2023-01-10T05:53:22;7.60;99.90
13806;DHT22;6974;53.606;9.872;2023-01-10T05:55:53;7.60;99.90
13806;DHT22;6974;53.606;9.872;2023-01-10T05:58:20;7.50;99.90
13806;DHT22;6974;53.606;9.872;2023-01-10T06:00:46;7.40;99.90
13806;DHT22;6974;53.606;9.872;2023-01-10T06:03:13;7.40;99.90
13806;DHT22;6974;53.606;9.872;2023-01-10T06:05:40;7.40;99.90
13806;DHT22;6974;53.606;9.872;2023-01-10T06:08:09;7.40;99.90
13806;DHT22;6974;53.606;9.872;2023-01-10T06:10:35;7.40;99.90
13806;DHT22;6974;53.606;9.872;2023-01-10T06:13:02;7.40;99.90
13806;DHT22;6974;53.606;9.872;2023-01-10T06:15:30;7.40;99.90
13806;DHT22;6974;53.606;9.872;2023-01-10T06:17:58;7.40;99.90
13806;DHT22;6974;53.606;9.872;2023-01-10T06:20:24;7.30;99.90
13806;DHT22;6974;53.606;9.872;2023-01-10T06:22:52;7.30;99.90
13806;DHT22;6974;53.606;9.872;2023-01-10T06:25:21;7.30;99.90
13806;DHT22;6974;53.606;9.872;2023-01-10T06:27:48;7.30;99.90
13806;DHT22;6974;53.606;9.872;2023-01-10T06:30:15;7.30;99.90
13806;DHT22;6974;53.606;9.872;2023-01-10T06:32:41;7.30;99.90
13806;DHT22;6974;53.606;9.872;2023-01-10T06:35:08;7.30;99.90
13806;DHT22;6974;53.606;9.872;2023-01-10T06:37:35;7.30;99.90
13806;DHT22;6974;53.606;9.872;2023-01-10T06:40:03;7.30;99.90
13806;DHT22;6974;53.606;9.872;2023-01-10T06:42:31;7.30;99.90
13806;DHT22;6974;53.606;9.872;2023-01-10T06:44:58;7.30;99.90
13806;DHT22;6974;53.606;9.872;2023-01-10T06:47:25;7.30;99.90
13806;DHT22;6974;53.606;9.872;2023-01-10T06:49:52;7.20;99.90
13806;DHT22;6974;53.606;9.872;2023-01-10T06:52:19;7.30;99.90
13806;DHT22;6974;53.606;9.872;2023-01-10T06:54:46;7.30;99.90
13806;DHT22;6974;53.606;9.872;2023-01-10T06:57:13;7.20;99.90
13806;DHT22;6974;53.606;9.872;2023-01-10T06:59:41;7.20;99.90
13806;DHT22;6974;53.606;9.872;2023-01-10T07:02:10;7.20;99.90
13806;DHT22;6974;53.606;9.872;2023-01-10T07:04:37;7.20;99.90
13806;DHT22;6974;53.606;9.872;2023-01-10T07:07:04;7.20;99.90
13806;DHT22;6974;53.606;9.872;2023-01-10T07:09:31;7.20;99.90
13806;DHT22;6974;53.606;9.872;2023-01-10T07:11:58;7.20;99.90
13806;DHT22;6974;53.606;9.872;2023-01-10T07:14:24;7.20;99.90
13806;DHT22;6974;53.606;9.872;2023-01-10T07:16:53;7.20;99.90
13806;DHT22;6974;53.606;9.872;2023-01-10T07:19:19;7.20;99.90
13806;DHT22;6974;53.606;9.872;2023-01-10T07:21:46;7.10;99.90
13806;DHT22;6974;53.606;9.872;2023-01-10T07:24:13;7.10;99.90
13806;DHT22;6974;53.606;9.872;2023-01-10T07:26:40;7.10;99.90
13806;DHT22;6974;53.606;9.872;2023-01-10T07:29:07;7.20;99.90
13806;DHT22;6974;53.606;9.872;2023-01-10T07:31:34;7.30;99.90
13806;DHT22;6974;53.606;9.872;2023-01-10T07:34:02;7.30;99.90
13806;DHT22;6974;53.606;9.872;2023-01-10T07:36:29;7.20;99.90
13806;DHT22;6974;53.606;9.872;2023-01-10T07:38:56;7.10;99.90
13806;DHT22;6974;53.606;9.872;2023-01-10T07:41:23;7.10;99.90
13806;DHT22;6974;53.606;9.872;2023-01-10T07:43:50;7.20;99.90
13806;DHT22;6974;53.606;9.872;2023-01-10T07:46:17;7.10;99.90
13806;DHT22;6974;53.606;9.872;2023-01-10T07:48:43;7.20;99.90
13806;DHT22;6974;53.606;9.872;2023-01-10T07:51:12;7.20;99.90
13806;DHT22;6974;53.606;9.872;2023-01-10T07:53:39;7.20;99.90
13806;DHT22;6974;53.606;9.872;2023-01-10T07:56:06;7.20;99.90
13806;DHT22;6974;53.606;9.872;2023-01-10T07:58:33;7.20;99.90
13806;DHT22;6974;53.606;9.872;2023-01-10T08:01:02;7.30;99.90
13806;DHT22;6974;53.606;9.872;2023-01-10T08:03:29;7.30;99.90
13806;DHT22;6974;53.606;9.872;2023-01-10T08:05:58;7.30;99.90
13806;DHT22;6974;53.606;9.872;2023-01-10T08:08:27;7.30;99.90
13806;DHT22;6974;53.606;9.872;2023-01-10T08:10:54;7.30;99.90
13806;DHT22;6974;53.606;9.872;2023-01-10T08:13:22;7.30;99.90
13806;DHT22;6974;53.606;9.872;2023-01-10T08:15:49;7.30;99.90
13806;DHT22;6974;53.606;9.872;2023-01-10T08:18:17;7.40;99.90
13806;DHT22;6974;53.606;9.872;2023-01-10T08:20:44;7.40;99.90
13806;DHT22;6974;53.606;9.872;2023-01-10T08:23:12;7.40;99.90
13806;DHT22;6974;53.606;9.872;2023-01-10T08:25:41;7.40;99.90
13806;DHT22;6974;53.606;9.872;2023-01-10T08:28:08;7.50;99.90
13806;DHT22;6974;53.606;9.872;2023-01-10T08:30:35;7.50;99.90
13806;DHT22;6974;53.606;9.872;2023-01-10T08:33:02;7.50;99.90
13806;DHT22;6974;53.606;9.872;2023-01-10T08:35:29;7.50;99.90
13806;DHT22;6974;53.606;9.872;2023-01-10T08:37:57;7.40;99.90
13806;DHT22;6974;53.606;9.872;2023-01-10T08:40:24;7.40;99.90
13806;DHT22;6974;53.606;9.872;2023-01-10T08:42:57;7.50;99.90
13806;DHT22;6974;53.606;9.872;2023-01-10T08:45:24;7.50;99.90
13806;DHT22;6974;53.606;9.872;2023-01-10T08:47:52;7.50;99.90
13806;DHT22;6974;53.606;9.872;2023-01-10T08:50:19;7.50;99.90
13806;DHT22;6974;53.606;9.872;2023-01-10T08:52:46;7.50;99.90
13806;DHT22;6974;53.606;9.872;2023-01-10T08:55:13;7.50;99.90
13806;DHT22;6974;53.606;9.872;2023-01-10T08:57:40;7.60;99.90
13806;DHT22;6974;53.606;9.872;2023-01-10T09:00:10;7.60;99.90
13806;DHT22;6974;53.606;9.872;2023-01-10T09:02:39;7.60;99.90
13806;DHT22;6974;53.606;9.872;2023-01-10T09:05:06;7.60;99.90
13806;DHT22;6974;53.606;9.872;2023-01-10T09:07:33;7.70;99.90
13806;DHT22;6974;53.606;9.872;2023-01-10T09:10:00;7.60;99.90
13806;DHT22;6974;53.606;9.872;2023-01-10T09:12:27;7.60;99.90
13806;DHT22;6974;53.606;9.872;2023-01-10T09:15:12;7.70;99.90
13806;DHT22;6974;53.606;9.872;2023-01-10T09:17:39;7.60;99.90
13806;DHT22;6974;53.606;9.872;2023-01-10T09:20:07;7.60;99.90
13806;DHT22;6974;53.606;9.872;2023-01-10T09:22:35;7.70;99.90
13806;DHT22;6974;53.606;9.872;2023-01-10T09:25:02;7.70;99.90
13806;DHT22;6974;53.606;9.872;2023-01-10T09:27:29;7.70;99.90
13806;DHT22;6974;53.606;9.872;2023-01-10T09:29:56;7.80;99.90
13806;DHT22;6974;53.606;9.872;2023-01-10T09:32:25;7.80;99.90
13806;DHT22;6974;53.606;9.872;2023-01-10T09:34:51;7.90;99.90
13806;DHT22;6974;53.606;9.872;2023-01-10T09:37:18;7.90;99.90
13806;DHT22;6974;53.606;9.872;2023-01-10T09:39:45;7.80;99.90
13806;DHT22;6974;53.606;9.872;2023-01-10T09:42:26;7.80;99.90
13806;DHT22;6974;53.606;9.872;2023-01-10T09:45:05;7.90;99.90
13806;DHT22;6974;53.606;9.872;2023-01-10T09:47:41;7.90;99.90
13806;DHT22;6974;53.606;9.872;2023-01-10T09:50:18;7.90;99.90
13806;DHT22;6974;53.606;9.872;2023-01-10T09:52:54;7.90;99.90
13806;DHT22;6974;53.606;9.872;2023-01-10T09:55:26;7.90;99.90
13806;DHT22;6974;53.606;9.872;2023-01-10T09:57:55;7.90;99.90
13806;DHT22;6974;53.606;9.872;2023-01-10T10:00:30;7.90;99.90
13806;DHT22;6974;53.606;9.872;2023-01-10T10:03:01;7.90;99.90
13806;DHT22;6974;53.606;9.872;2023-01-10T10:05:30;7.90;99.90
13806;DHT22;6974;53.606;9.872;2023-01-10T10:07:59;7.90;99.90
13806;DHT22;6974;53.606;9.872;2023-01-10T10:10:33;7.90;99.90
13806;DHT22;6974;53.606;9.872;2023-01-10T10:13:14;7.90;99.90
13806;DHT22;6974;53.606;9.872;2023-01-10T10:15:50;7.90;99.90
13806;DHT22;6974;53.606;9.872;2023-01-10T10:18:29;7.90;99.90
13806;DHT22;6974;53.606;9.872;2023-01-10T10:21:03;7.80;99.90
13806;DHT22;6974;53.606;9.872;2023-01-10T10:23:47;7.90;99.90
13806;DHT22;6974;53.606;9.872;2023-01-10T10:26:21;7.90;99.90
13806;DHT22;6974;53.606;9.872;2023-01-10T10:29:13;7.90;99.90
13806;DHT22;6974;53.606;9.872;2023-01-10T10:31:59;7.90;99.90
13806;DHT22;6974;53.606;9.872;2023-01-10T10:34:34;7.90;99.90
13806;DHT22;6974;53.606;9.872;2023-01-10T10:37:08;7.90;99.90
13806;DHT22;6974;53.606;9.872;2023-01-10T10:39:40;7.90;99.90
13806;DHT22;6974;53.606;9.872;2023-01-10T10:42:12;7.90;99.90
13806;DHT22;6974;53.606;9.872;2023-01-10T10:44:42;7.90;99.90
13806;DHT22;6974;53.606;9.872;2023-01-10T10:47:14;7.90;99.90
13806;DHT22;6974;53.606;9.872;2023-01-10T10:49:48;8.00;99.90
13806;DHT22;6974;53.606;9.872;2023-01-10T10:52:21;8.00;99.90
13806;DHT22;6974;53.606;9.872;2023-01-10T10:54:49;8.00;99.90
13806;DHT22;6974;53.606;9.872;2023-01-10T10:57:16;8.00;99.90
13806;DHT22;6974;53.606;9.872;2023-01-10T10:59:47;8.00;99.90
13806;DHT22;6974;53.606;9.872;2023-01-10T11:02:32;8.10;99.90
13806;DHT22;6974;53.606;9.872;2023-01-10T11:05:13;8.10;99.90
13806;DHT22;6974;53.606;9.872;2023-01-10T11:07:41;8.20;99.90
13806;DHT22;6974;53.606;9.872;2023-01-10T11:10:13;8.20;99.90
13806;DHT22;6974;53.606;9.872;2023-01-10T11:12:59;8.20;99.90
13806;DHT22;6974;53.606;9.872;2023-01-10T11:15:36;8.10;99.90
13806;DHT22;6974;53.606;9.872;2023-01-10T11:18:04;8.10;99.90
13806;DHT22;6974;53.606;9.872;2023-01-10T11:20:33;8.10;99.90
13806;DHT22;6974;53.606;9.872;2023-01-10T11:23:00;8.00;99.90
13806;DHT22;6974;53.606;9.872;2023-01-10T11:25:27;8.10;99.90
13806;DHT22;6974;53.606;9.872;2023-01-10T11:27:57;8.10;99.90
13806;DHT22;6974;53.606;9.872;2023-01-10T11:30:27;8.10;99.90
13806;DHT22;6974;53.606;9.872;2023-01-10T11:32:56;8.10;99.90
13806;DHT22;6974;53.606;9.872;2023-01-10T11:35:26;8.10;99.90
13806;DHT22;6974;53.606;9.872;2023-01-10T11:38:00;8.20;99.90
13806;DHT22;6974;53.606;9.872;2023-01-10T11:40:27;8.30;99.90
13806;DHT22;6974;53.606;9.872;2023-01-10T11:42:56;8.30;99.90
13806;DHT22;6974;53.606;9.872;2023-01-10T11:45:26;8.30;99.90
13806;DHT22;6974;53.606;9.872;2023-01-10T11:47:57;8.30;99.90
13806;DHT22;6974;53.606;9.872;2023-01-10T11:50:26;8.30;99.90
13806;DHT22;6974;53.606;9.872;2023-01-10T11:52:54;8.20;99.90
13806;DHT22;6974;53.606;9.872;2023-01-10T11:55:24;8.30;99.90
13806;DHT22;6974;53.606;9.872;2023-01-10T11:57:58;8.20;99.90
13806;DHT22;6974;53.606;9.872;2023-01-10T12:00:35;8.30;99.90
13806;DHT22;6974;53.606;9.872;2023-01-10T12:03:17;8.40;99.90
13806;DHT22;6974;53.606;9.872;2023-01-10T12:05:50;8.30;99.90
13806;DHT22;6974;53.606;9.872;2023-01-10T12:08:24;8.40;99.90
13806;DHT22;6974;53.606;9.872;2023-01-10T12:10:58;8.40;99.90
13806;DHT22;6974;53.606;9.872;2023-01-10T12:13:27;8.40;99.90
13806;DHT22;6974;53.606;9.872;2023-01-10T12:16:19;8.40;99.90
13806;DHT22;6974;53.606;9.872;2023-01-10T12:18:47;8.40;99.90
13806;DHT22;6974;53.606;9.872;2023-01-10T12:21:17;8.50;99.90
13806;DHT22;6974;53.606;9.872;2023-01-10T12:23:48;8.40;99.90
13806;DHT22;6974;53.606;9.872;2023-01-10T12:26:16;8.50;99.90
13806;DHT22;6974;53.606;9.872;2023-01-10T12:28:49;8.50;99.90
13806;DHT22;6974;53.606;9.872;2023-01-10T12:31:19;8.50;99.90
13806;DHT22;6974;53.606;9.872;2023-01-10T12:33:52;8.50;99.90
13806;DHT22;6974;53.606;9.872;2023-01-10T12:36:29;8.50;99.90
13806;DHT22;6974;53.606;9.872;2023-01-10T12:39:04;8.50;99.90
13806;DHT22;6974;53.606;9.872;2023-01-10T12:41:45;8.60;99.90
13806;DHT22;6974;53.606;9.872;2023-01-10T12:44:34;8.60;99.90
13806;DHT22;6974;53.606;9.872;2023-01-10T12:47:10;8.60;99.90
13806;DHT22;6974;53.606;9.872;2023-01-10T12:49:43;8.60;99.90
13806;DHT22;6974;53.606;9.872;2023-01-10T12:52:17;8.70;99.90
13806;DHT22;6974;53.606;9.872;2023-01-10T12:54:45;8.70;99.90
13806;DHT22;6974;53.606;9.872;2023-01-10T12:57:24;8.60;99.90
13806;DHT22;6974;53.606;9.872;2023-01-10T12:59:53;8.70;99.90
13806;DHT22;6974;53.606;9.872;2023-01-10T13:02:23;8.70;99.90
13806;DHT22;6974;53.606;9.872;2023-01-10T13:04:53;8.80;99.90
13806;DHT22;6974;53.606;9.872;2023-01-10T13:07:23;8.80;99.90
13806;DHT22;6974;53.606;9.872;2023-01-10T13:09:53;8.80;99.90
13806;DHT22;6974;53.606;9.872;2023-01-10T13:12:25;8.80;99.90
13806;DHT22;6974;53.606;9.872;2023-01-10T13:15:03;8.80;99.90
13806;DHT22;6974;53.606;9.872;2023-01-10T13:17:36;8.90;99.90
13806;DHT22;6974;53.606;9.872;2023-01-10T13:23:24;8.90;99.90
13806;DHT22;6974;53.606;9.872;2023-01-10T13:26:00;8.90;99.90
13806;DHT22;6974;53.606;9.872;2023-01-10T13:28:32;9.00;99.90
13806;DHT22;6974;53.606;9.872;2023-01-10T13:31:01;9.00;99.90
13806;DHT22;6974;53.606;9.872;2023-01-10T13:33:30;9.00;99.90
13806;DHT22;6974;53.606;9.872;2023-01-10T13:36:08;9.10;99.90
13806;DHT22;6974;53.606;9.872;2023-01-10T13:38:43;9.10;99.90
13806;DHT22;6974;53.606;9.872;2023-01-10T13:41:13;9.00;99.90
13806;DHT22;6974;53.606;9.872;2023-01-10T13:44:09;9.00;99.90
13806;DHT22;6974;53.606;9.872;2023-01-10T13:46:42;9.00;99.90
13806;DHT22;6974;53.606;9.872;2023-01-10T13:49:40;8.90;99.90
13806;DHT22;6974;53.606;9.872;2023-01-10T13:52:37;9.00;99.90
13806;DHT22;6974;53.606;9.872;2023-01-10T13:55:30;9.00;99.90
13806;DHT22;6974;53.606;9.872;2023-01-10T13:58:01;8.90;99.90
13806;DHT22;6974;53.606;9.872;2023-01-10T14:00:48;8.80;99.90
13806;DHT22;6974;53.606;9.872;2023-01-10T14:03:41;8.90;99.90
13806;DHT22;6974;53.606;9.872;2023-01-10T14:06:13;8.80;99.90
13806;DHT22;6974;53.606;9.872;2023-01-10T14:08:48;8.90;99.90
13806;DHT22;6974;53.606;9.872;2023-01-10T14:11:15;8.90;99.90
13806;DHT22;6974;53.606;9.872;2023-01-10T14:13:46;8.80;99.90
13806;DHT22;6974;53.606;9.872;2023-01-10T14:16:31;8.80;99.90
13806;DHT22;6974;53.606;9.872;2023-01-10T14:18:59;8.80;99.90
13806;DHT22;6974;53.606;9.872;2023-01-10T14:21:28;8.80;99.90
13806;DHT22;6974;53.606;9.872;2023-01-10T14:23:56;8.80;99.90
13806;DHT22;6974;53.606;9.872;2023-01-10T14:26:28;8.70;99.90
13806;DHT22;6974;53.606;9.872;2023-01-10T14:28:57;8.80;99.90
13806;DHT22;6974;53.606;9.872;2023-01-10T14:31:25;8.70;99.90
13806;DHT22;6974;53.606;9.872;2023-01-10T14:33:54;8.80;99.90
13806;DHT22;6974;53.606;9.872;2023-01-10T14:36:26;8.80;99.90
13806;DHT22;6974;53.606;9.872;2023-01-10T14:38:56;8.70;99.90
13806;DHT22;6974;53.606;9.872;2023-01-10T14:41:30;8.70;99.90
13806;DHT22;6974;53.606;9.872;2023-01-10T14:44:01;8.70;99.90
13806;DHT22;6974;53.606;9.872;2023-01-10T14:46:32;8.70;99.90
13806;DHT22;6974;53.606;9.872;2023-01-10T14:49:01;8.70;99.90
13806;DHT22;6974;53.606;9.872;2023-01-10T14:51:29;8.70;99.90
13806;DHT22;6974;53.606;9.872;2023-01-10T14:56:37;8.70;99.90
13806;DHT22;6974;53.606;9.872;2023-01-10T14:59:19;8.70;99.90
13806;DHT22;6974;53.606;9.872;2023-01-10T15:01:49;8.60;99.90
13806;DHT22;6974;53.606;9.872;2023-01-10T15:04:19;8.60;99.90
13806;DHT22;6974;53.606;9.872;2023-01-10T15:06:53;8.60;99.90
13806;DHT22;6974;53.606;9.872;2023-01-10T15:09:22;8.70;99.90
13806;DHT22;6974;53.606;9.872;2023-01-10T15:11:50;8.70;99.90
13806;DHT22;6974;53.606;9.872;2023-01-10T15:14:21;8.70;99.90
13806;DHT22;6974;53.606;9.872;2023-01-10T15:16:53;8.60;99.90
13806;DHT22;6974;53.606;9.872;2023-01-10T15:19:23;8.60;99.90
13806;DHT22;6974;53.606;9.872;2023-01-10T15:21:54;8.60;99.90
13806;DHT22;6974;53.606;9.872;2023-01-10T15:24:32;8.60;99.90
13806;DHT22;6974;53.606;9.872;2023-01-10T15:27:03;8.50;99.90
13806;DHT22;6974;53.606;9.872;2023-01-10T15:29:32;8.50;99.90
13806;DHT22;6974;53.606;9.872;2023-01-10T15:32:06;8.50;99.90
13806;DHT22;6974;53.606;9.872;2023-01-10T15:34:36;8.60;99.90
13806;DHT22;6974;53.606;9.872;2023-01-10T15:37:18;8.50;99.90
13806;DHT22;6974;53.606;9.872;2023-01-10T15:39:46;8.50;99.90
13806;DHT22;6974;53.606;9.872;2023-01-10T15:42:14;8.50;99.90
13806;DHT22;6974;53.606;9.872;2023-01-10T15:44:46;8.50;99.90
13806;DHT22;6974;53.606;9.872;2023-01-10T15:47:40;8.40;99.90
13806;DHT22;6974;53.606;9.872;2023-01-10T15:50:20;8.40;99.90
13806;DHT22;6974;53.606;9.872;2023-01-10T15:52:49;8.40;99.90
13806;DHT22;6974;53.606;9.872;2023-01-10T15:58:02;8.30;99.90
13806;DHT22;6974;53.606;9.872;2023-01-10T16:00:29;8.30;99.90
13806;DHT22;6974;53.606;9.872;2023-01-10T16:02:57;8.30;99.90
13806;DHT22;6974;53.606;9.872;2023-01-10T16:05:26;8.20;99.90
13806;DHT22;6974;53.606;9.872;2023-01-10T16:07:53;8.20;99.90
13806;DHT22;6974;53.606;9.872;2023-01-10T16:10:23;8.20;99.90
13806;DHT22;6974;53.606;9.872;2023-01-10T16:13:08;8.20;99.90
13806;DHT22;6974;53.606;9.872;2023-01-10T16:15:52;8.20;99.90
13806;DHT22;6974;53.606;9.872;2023-01-10T16:18:20;8.20;99.90
13806;DHT22;6974;53.606;9.872;2023-01-10T16:20:51;8.20;99.90
13806;DHT22;6974;53.606;9.872;2023-01-10T16:23:20;8.20;99.90
13806;DHT22;6974;53.606;9.872;2023-01-10T16:25:49;8.20;99.90
13806;DHT22;6974;53.606;9.872;2023-01-10T16:28:19;8.20;99.90
13806;DHT22;6974;53.606;9.872;2023-01-10T16:30:47;8.20;99.90
13806;DHT22;6974;53.606;9.872;2023-01-10T16:33:16;8.10;99.90
13806;DHT22;6974;53.606;9.872;2023-01-10T16:35:44;8.10;99.90
13806;DHT22;6974;53.606;9.872;2023-01-10T16:38:13;8.10;99.90
13806;DHT22;6974;53.606;9.872;2023-01-10T16:40:45;8.10;99.90